sensor_id;sensor_type;location;lat;lon;timestamp;pressure;altitude;pressure_sealevel;temperature;humidity
14117;BME280;7137;51.436;6.544;2024-01-06T00:02:40;99854.06;;;7.62;100.00
14117;BME280;7137;51.436;6.544;2024-01-06T00:05:41;99859.22;;;7.63;100.00
14117;BME280;7137;51.436;6.544;2024-01-06T00:08:43;99857.31;;;7.68;100.00
14117;BME280;7137;51.436;6.544;2024-01-06T00:11:46;99854.69;;;7.68;100.00
14117;BME280;7137;51.436;6.544;2024-01-06T00:14:47;99854.50;;;7.74;100.00
14117;BME280;7137;51.436;6.544;2024-01-06T00:17:49;99863.78;;;7.82;100.00
14117;BME280;7137;51.436;6.544;2024-01-06T00:20:51;99862.19;;;7.78;100.00
14117;BME280;7137;51.436;6.544;2024-01-06T00:23:52;99864.00;;;7.76;100.00
14117;BME280;7137;51.436;6.544;2024-01-06T00:26:57;99872.06;;;7.93;100.00
14117;BME280;7137;51.436;6.544;2024-01-06T00:29:59;99871.19;;;7.94;100.00
14117;BME280;7137;51.436;6.544;2024-01-06T00:33:01;99866.94;;;7.91;100.00
14117;BME280;7137;51.436;6.544;2024-01-06T00:36:03;99869.41;;;7.94;100.00
14117;BME280;7137;51.436;6.544;2024-01-06T00:39:05;99873.72;;;7.95;100.00
14117;BME280;7137;51.436;6.544;2024-01-06T00:42:08;99871.31;;;7.64;100.00
14117;BME280;7137;51.436;6.544;2024-01-06T00:45:10;99876.09;;;7.50;100.00
14117;BME280;7137;51.436;6.544;2024-01-06T00:48:11;99883.75;;;7.55;100.00
14117;BME280;7137;51.436;6.544;2024-01-06T00:51:13;99886.56;;;7.73;100.00
14117;BME280;7137;51.436;6.544;2024-01-06T00:54:15;99889.69;;;7.58;100.00
14117;BME280;7137;51.436;6.544;2024-01-06T00:57:17;99884.53;;;7.83;100.00
14117;BME280;7137;51.436;6.544;2024-01-06T01:00:24;99891.28;;;7.89;100.00
14117;BME280;7137;51.436;6.544;2024-01-06T01:03:27;99896.63;;;7.58;100.00
14117;BME280;7137;51.436;6.544;2024-01-06T01:06:28;99890.13;;;7.44;100.00
14117;BME280;7137;51.436;6.544;2024-01-06T01:09:30;99893.44;;;7.50;100.00
14117;BME280;7137;51.436;6.544;2024-01-06T01:12:33;99893.91;;;7.62;100.00
14117;BME280;7137;51.436;6.544;2024-01-06T01:15:34;99897.63;;;7.80;100.00
14117;BME280;7137;51.436;6.544;2024-01-06T01:18:36;99901.72;;;7.87;100.00
14117;BME280;7137;51.436;6.544;2024-01-06T01:21:37;99901.63;;;7.90;100.00
14117;BME280;7137;51.436;6.544;2024-01-06T01:24:39;99908.88;;;7.81;100.00
14117;BME280;7137;51.436;6.544;2024-01-06T01:27:42;99912.38;;;7.80;100.00
14117;BME280;7137;51.436;6.544;2024-01-06T01:30:43;99910.38;;;7.88;100.00
14117;BME280;7137;51.436;6.544;2024-01-06T01:33:45;99911.75;;;7.98;100.00
14117;BME280;7137;51.436;6.544;2024-01-06T01:36:46;99918.53;;;8.03;100.00
14117;BME280;7137;51.436;6.544;2024-01-06T01:39:48;99919.03;;;8.13;100.00
14117;BME280;7137;51.436;6.544;2024-01-06T01:42:51;99923.44;;;8.11;100.00
14117;BME280;7137;51.436;6.544;2024-01-06T01:45:53;99930.69;;;8.03;100.00
14117;BME280;7137;51.436;6.544;2024-01-06T01:48:56;99932.22;;;8.09;100.00
14117;BME280;7137;51.436;6.544;2024-01-06T01:51:58;99935.03;;;7.76;100.00
14117;BME280;7137;51.436;6.544;2024-01-06T01:55:00;99936.22;;;7.66;100.00
14117;BME280;7137;51.436;6.544;2024-01-06T01:58:04;99937.44;;;7.82;100.00
14117;BME280;7137;51.436;6.544;2024-01-06T02:01:07;99951.16;;;7.86;100.00
14117;BME280;7137;51.436;6.544;2024-01-06T02:04:08;99957.44;;;8.07;100.00
14117;BME280;7137;51.436;6.544;2024-01-06T02:07:10;99948.34;;;7.93;100.00
14117;BME280;7137;51.436;6.544;2024-01-06T02:10:12;99961.09;;;7.73;100.00
14117;BME280;7137;51.436;6.544;2024-01-06T02:13:15;99947.81;;;7.56;100.00
14117;BME280;7137;51.436;6.544;2024-01-06T02:16:16;99954.22;;;7.44;100.00
14117;BME280;7137;51.436;6.544;2024-01-06T02:19:18;99946.22;;;7.24;100.00
14117;BME280;7137;51.436;6.544;2024-01-06T02:22:21;99956.78;;;7.18;100.00
14117;BME280;7137;51.436;6.544;2024-01-06T02:25:22;99960.84;;;7.26;100.00
14117;BME280;7137;51.436;6.544;2024-01-06T02:28:24;99975.69;;;7.23;100.00
14117;BME280;7137;51.436;6.544;2024-01-06T02:31:25;99978.09;;;6.99;100.00
14117;BME280;7137;51.436;6.544;2024-01-06T02:34:27;99985.13;;;6.96;100.00
14117;BME280;7137;51.436;6.544;2024-01-06T02:37:30;99997.34;;;6.92;100.00
14117;BME280;7137;51.436;6.544;2024-01-06T02:40:31;99999.28;;;6.84;100.00
14117;BME280;7137;51.436;6.544;2024-01-06T02:43:33;100005.56;;;6.44;100.00
14117;BME280;7137;51.436;6.544;2024-01-06T02:46:34;100011.81;;;6.37;100.00
14117;BME280;7137;51.436;6.544;2024-01-06T02:49:36;100017.19;;;6.30;100.00
14117;BME280;7137;51.436;6.544;2024-01-06T02:52:39;100026.91;;;6.21;100.00
14117;BME280;7137;51.436;6.544;2024-01-06T02:55:40;100025.13;;;6.23;100.00
14117;BME280;7137;51.436;6.544;2024-01-06T02:58:42;100030.22;;;6.27;100.00
14117;BME280;7137;51.436;6.544;2024-01-06T03:01:43;100029.53;;;6.18;100.00
14117;BME280;7137;51.436;6.544;2024-01-06T03:04:45;100037.38;;;6.17;100.00
14117;BME280;7137;51.436;6.544;2024-01-06T03:07:47;100044.13;;;6.24;100.00
14117;BME280;7137;51.436;6.544;2024-01-06T03:10:49;100047.94;;;6.09;100.00
14117;BME280;7137;51.436;6.544;2024-01-06T03:13:50;100057.59;;;6.03;100.00
14117;BME280;7137;51.436;6.544;2024-01-06T03:16:52;100058.50;;;6.00;100.00
14117;BME280;7137;51.436;6.544;2024-01-06T03:19:53;100055.16;;;5.97;100.00
14117;BME280;7137;51.436;6.544;2024-01-06T03:22:57;100062.84;;;6.00;100.00
14117;BME280;7137;51.436;6.544;2024-01-06T03:26:05;100059.44;;;5.98;100.00
14117;BME280;7137;51.436;6.544;2024-01-06T03:29:06;100075.16;;;5.88;100.00
14117;BME280;7137;51.436;6.544;2024-01-06T03:32:08;100076.16;;;5.83;100.00
14117;BME280;7137;51.436;6.544;2024-01-06T03:35:09;100071.72;;;5.88;100.00
14117;BME280;7137;51.436;6.544;2024-01-06T03:38:12;100070.88;;;5.87;100.00
14117;BME280;7137;51.436;6.544;2024-01-06T03:41:14;100078.56;;;5.93;100.00
14117;BME280;7137;51.436;6.544;2024-01-06T03:44:15;100083.75;;;5.93;100.00
14117;BME280;7137;51.436;6.544;2024-01-06T03:47:17;100081.00;;;6.00;100.00
14117;BME280;7137;51.436;6.544;2024-01-06T03:50:19;100100.28;;;5.86;100.00
14117;BME280;7137;51.436;6.544;2024-01-06T03:53:22;100097.00;;;5.78;100.00
14117;BME280;7137;51.436;6.544;2024-01-06T03:56:23;100101.34;;;5.76;100.00
14117;BME280;7137;51.436;6.544;2024-01-06T03:59:25;100103.78;;;5.84;100.00
14117;BME280;7137;51.436;6.544;2024-01-06T04:02:26;100113.41;;;5.79;100.00
14117;BME280;7137;51.436;6.544;2024-01-06T04:05:28;100109.00;;;5.82;100.00
14117;BME280;7137;51.436;6.544;2024-01-06T04:08:31;100113.16;;;5.91;100.00
14117;BME280;7137;51.436;6.544;2024-01-06T04:11:32;100110.56;;;5.89;100.00
14117;BME280;7137;51.436;6.544;2024-01-06T04:14:34;100108.13;;;5.83;100.00
14117;BME280;7137;51.436;6.544;2024-01-06T04:17:35;100120.06;;;5.89;100.00
14117;BME280;7137;51.436;6.544;2024-01-06T04:20:37;100118.19;;;5.99;100.00
14117;BME280;7137;51.436;6.544;2024-01-06T04:23:39;100114.13;;;5.85;100.00
14117;BME280;7137;51.436;6.544;2024-01-06T04:26:41;100122.81;;;5.83;100.00
14117;BME280;7137;51.436;6.544;2024-01-06T04:29:45;100114.44;;;5.70;100.00
14117;BME280;7137;51.436;6.544;2024-01-06T04:32:46;100111.81;;;5.72;100.00
14117;BME280;7137;51.436;6.544;2024-01-06T04:35:49;100115.47;;;5.61;100.00
14117;BME280;7137;51.436;6.544;2024-01-06T04:38:52;100118.00;;;5.66;100.00
14117;BME280;7137;51.436;6.544;2024-01-06T04:41:53;100121.25;;;5.74;100.00
14117;BME280;7137;51.436;6.544;2024-01-06T04:44:55;100128.50;;;5.58;100.00
14117;BME280;7137;51.436;6.544;2024-01-06T04:47:56;100131.13;;;5.57;100.00
14117;BME280;7137;51.436;6.544;2024-01-06T04:50:58;100129.53;;;5.51;100.00
14117;BME280;7137;51.436;6.544;2024-01-06T04:54:01;100131.81;;;5.66;100.00
14117;BME280;7137;51.436;6.544;2024-01-06T04:57:02;100137.00;;;5.66;100.00
14117;BME280;7137;51.436;6.544;2024-01-06T05:00:05;100132.63;;;5.69;100.00
14117;BME280;7137;51.436;6.544;2024-01-06T05:03:07;100135.88;;;5.78;100.00
14117;BME280;7137;51.436;6.544;2024-01-06T05:06:08;100145.31;;;5.81;100.00
14117;BME280;7137;51.436;6.544;2024-01-06T05:09:11;100145.41;;;5.78;100.00
14117;BME280;7137;51.436;6.544;2024-01-06T05:12:13;100148.13;;;5.70;100.00
14117;BME280;7137;51.436;6.544;2024-01-06T05:15:14;100153.31;;;5.70;100.00
14117;BME280;7137;51.436;6.544;2024-01-06T05:18:16;100161.00;;;5.73;100.00
14117;BME280;7137;51.436;6.544;2024-01-06T05:21:17;100165.28;;;5.77;100.00
14117;BME280;7137;51.436;6.544;2024-01-06T05:24:20;100165.00;;;5.89;100.00
14117;BME280;7137;51.436;6.544;2024-01-06T05:27:22;100172.91;;;5.83;100.00
14117;BME280;7137;51.436;6.544;2024-01-06T05:30:23;100168.03;;;5.68;100.00
14117;BME280;7137;51.436;6.544;2024-01-06T05:33:25;100163.81;;;5.62;100.00
14117;BME280;7137;51.436;6.544;2024-01-06T05:36:26;100174.00;;;5.72;100.00
14117;BME280;7137;51.436;6.544;2024-01-06T05:39:29;100171.41;;;5.72;100.00
14117;BME280;7137;51.436;6.544;2024-01-06T05:42:30;100180.78;;;5.79;100.00
14117;BME280;7137;51.436;6.544;2024-01-06T05:45:33;100188.50;;;5.82;100.00
14117;BME280;7137;51.436;6.544;2024-01-06T05:48:34;100185.13;;;5.77;100.00
14117;BME280;7137;51.436;6.544;2024-01-06T05:51:36;100187.03;;;5.69;100.00
14117;BME280;7137;51.436;6.544;2024-01-06T05:54:41;100185.63;;;5.52;100.00
14117;BME280;7137;51.436;6.544;2024-01-06T05:57:43;100192.84;;;5.36;100.00
14117;BME280;7137;51.436;6.544;2024-01-06T06:00:44;100198.06;;;5.33;100.00
14117;BME280;7137;51.436;6.544;2024-01-06T06:03:47;100192.81;;;5.38;100.00
14117;BME280;7137;51.436;6.544;2024-01-06T06:06:50;100209.09;;;5.43;100.00
14117;BME280;7137;51.436;6.544;2024-01-06T06:09:53;100210.81;;;5.44;100.00
14117;BME280;7137;51.436;6.544;2024-01-06T06:12:54;100224.59;;;5.45;100.00
14117;BME280;7137;51.436;6.544;2024-01-06T06:15:56;100227.31;;;5.39;100.00
14117;BME280;7137;51.436;6.544;2024-01-06T06:18:58;100233.19;;;5.47;100.00
14117;BME280;7137;51.436;6.544;2024-01-06T06:21:59;100239.56;;;5.29;100.00
14117;BME280;7137;51.436;6.544;2024-01-06T06:25:02;100244.06;;;5.18;100.00
14117;BME280;7137;51.436;6.544;2024-01-06T06:28:04;100245.78;;;5.19;100.00
14117;BME280;7137;51.436;6.544;2024-01-06T06:31:07;100250.22;;;5.12;100.00
14117;BME280;7137;51.436;6.544;2024-01-06T06:34:09;100265.72;;;5.14;100.00
14117;BME280;7137;51.436;6.544;2024-01-06T06:37:11;100263.06;;;5.18;100.00
14117;BME280;7137;51.436;6.544;2024-01-06T06:40:14;100272.56;;;5.18;100.00
14117;BME280;7137;51.436;6.544;2024-01-06T06:43:16;100274.38;;;5.13;100.00
14117;BME280;7137;51.436;6.544;2024-01-06T06:46:17;100278.56;;;5.20;100.00
14117;BME280;7137;51.436;6.544;2024-01-06T06:49:19;100279.38;;;5.23;100.00
14117;BME280;7137;51.436;6.544;2024-01-06T06:52:20;100282.72;;;5.30;100.00
14117;BME280;7137;51.436;6.544;2024-01-06T06:55:23;100294.00;;;5.26;100.00
14117;BME280;7137;51.436;6.544;2024-01-06T06:58:25;100305.16;;;5.29;100.00
14117;BME280;7137;51.436;6.544;2024-01-06T07:01:26;100293.31;;;5.15;100.00
14117;BME280;7137;51.436;6.544;2024-01-06T07:04:28;100299.44;;;5.11;100.00
14117;BME280;7137;51.436;6.544;2024-01-06T07:07:29;100310.81;;;5.00;100.00
14117;BME280;7137;51.436;6.544;2024-01-06T07:10:32;100312.41;;;5.09;100.00
14117;BME280;7137;51.436;6.544;2024-01-06T07:13:33;100318.25;;;5.20;100.00
14117;BME280;7137;51.436;6.544;2024-01-06T07:16:35;100324.31;;;5.21;100.00
14117;BME280;7137;51.436;6.544;2024-01-06T07:19:37;100323.50;;;5.16;100.00
14117;BME280;7137;51.436;6.544;2024-01-06T07:22:39;100335.66;;;5.12;100.00
14117;BME280;7137;51.436;6.544;2024-01-06T07:25:42;100340.09;;;5.02;100.00
14117;BME280;7137;51.436;6.544;2024-01-06T07:28:44;100343.63;;;4.98;100.00
14117;BME280;7137;51.436;6.544;2024-01-06T07:31:45;100352.25;;;4.97;100.00
14117;BME280;7137;51.436;6.544;2024-01-06T07:34:47;100356.72;;;4.88;100.00
14117;BME280;7137;51.436;6.544;2024-01-06T07:37:49;100358.50;;;4.84;100.00
14117;BME280;7137;51.436;6.544;2024-01-06T07:40:52;100360.28;;;4.81;100.00
14117;BME280;7137;51.436;6.544;2024-01-06T07:43:54;100368.06;;;4.76;100.00
14117;BME280;7137;51.436;6.544;2024-01-06T07:46:56;100368.22;;;4.67;100.00
14117;BME280;7137;51.436;6.544;2024-01-06T07:49:57;100380.28;;;4.68;100.00
14117;BME280;7137;51.436;6.544;2024-01-06T07:52:59;100383.63;;;4.73;100.00
14117;BME280;7137;51.436;6.544;2024-01-06T07:56:03;100378.53;;;4.68;100.00
14117;BME280;7137;51.436;6.544;2024-01-06T07:59:05;100382.09;;;4.58;100.00
14117;BME280;7137;51.436;6.544;2024-01-06T08:02:07;100387.31;;;4.57;100.00
14117;BME280;7137;51.436;6.544;2024-01-06T08:05:09;100392.50;;;4.55;100.00
14117;BME280;7137;51.436;6.544;2024-01-06T08:08:10;100412.50;;;4.41;100.00
14117;BME280;7137;51.436;6.544;2024-01-06T08:11:14;100411.78;;;4.27;100.00
14117;BME280;7137;51.436;6.544;2024-01-06T08:14:16;100422.94;;;4.30;100.00
14117;BME280;7137;51.436;6.544;2024-01-06T08:17:18;100418.59;;;4.34;100.00
14117;BME280;7137;51.436;6.544;2024-01-06T08:20:19;100423.00;;;4.26;100.00
14117;BME280;7137;51.436;6.544;2024-01-06T08:23:21;100432.53;;;4.17;100.00
14117;BME280;7137;51.436;6.544;2024-01-06T08:26:23;100441.13;;;4.20;100.00
14117;BME280;7137;51.436;6.544;2024-01-06T08:29:25;100445.44;;;4.19;100.00
14117;BME280;7137;51.436;6.544;2024-01-06T08:32:26;100442.06;;;4.14;100.00
14117;BME280;7137;51.436;6.544;2024-01-06T08:35:28;100447.28;;;4.11;100.00
14117;BME280;7137;51.436;6.544;2024-01-06T08:38:30;100445.56;;;4.10;100.00
14117;BME280;7137;51.436;6.544;2024-01-06T08:41:33;100460.22;;;4.06;100.00
14117;BME280;7137;51.436;6.544;2024-01-06T08:44:35;100455.03;;;4.09;100.00
14117;BME280;7137;51.436;6.544;2024-01-06T08:47:37;100461.94;;;4.09;100.00
14117;BME280;7137;51.436;6.544;2024-01-06T08:50:38;100465.38;;;4.09;100.00
14117;BME280;7137;51.436;6.544;2024-01-06T08:53:40;100467.97;;;4.06;100.00
14117;BME280;7137;51.436;6.544;2024-01-06T08:56:43;100485.19;;;4.07;100.00
14117;BME280;7137;51.436;6.544;2024-01-06T08:59:44;100479.06;;;4.19;100.00
14117;BME280;7137;51.436;6.544;2024-01-06T09:02:46;100500.56;;;4.26;100.00
14117;BME280;7137;51.436;6.544;2024-01-06T09:05:47;100503.19;;;4.18;100.00
14117;BME280;7137;51.436;6.544;2024-01-06T09:08:49;100502.41;;;4.11;100.00
14117;BME280;7137;51.436;6.544;2024-01-06T09:11:52;100512.81;;;4.02;100.00
14117;BME280;7137;51.436;6.544;2024-01-06T09:14:53;100519.66;;;4.06;100.00
14117;BME280;7137;51.436;6.544;2024-01-06T09:17:55;100530.00;;;4.05;100.00
14117;BME280;7137;51.436;6.544;2024-01-06T09:20:56;100533.44;;;4.05;100.00
14117;BME280;7137;51.436;6.544;2024-01-06T09:23:57;100538.63;;;4.05;100.00
14117;BME280;7137;51.436;6.544;2024-01-06T09:27:02;100540.38;;;4.02;100.00
14117;BME280;7137;51.436;6.544;2024-01-06T09:30:04;100541.28;;;3.98;100.00
14117;BME280;7137;51.436;6.544;2024-01-06T09:33:06;100546.44;;;3.98;100.00
14117;BME280;7137;51.436;6.544;2024-01-06T09:36:08;100562.81;;;3.97;100.00
14117;BME280;7137;51.436;6.544;2024-01-06T09:39:12;100562.69;;;4.13;100.00
14117;BME280;7137;51.436;6.544;2024-01-06T09:42:15;100566.13;;;4.12;100.00
14117;BME280;7137;51.436;6.544;2024-01-06T09:45:17;100562.78;;;4.00;100.00
14117;BME280;7137;51.436;6.544;2024-01-06T09:48:22;100568.81;;;3.99;100.00
14117;BME280;7137;51.436;6.544;2024-01-06T09:51:29;100580.84;;;4.03;100.00
14117;BME280;7137;51.436;6.544;2024-01-06T09:54:31;100586.88;;;4.02;100.00
14117;BME280;7137;51.436;6.544;2024-01-06T09:57:37;100585.13;;;4.05;100.00
14117;BME280;7137;51.436;6.544;2024-01-06T10:00:39;100590.31;;;4.04;100.00
14117;BME280;7137;51.436;6.544;2024-01-06T10:03:40;100592.91;;;4.04;100.00
14117;BME280;7137;51.436;6.544;2024-01-06T10:06:42;100589.50;;;3.97;100.00
14117;BME280;7137;51.436;6.544;2024-01-06T10:09:43;100586.03;;;4.00;100.00
14117;BME280;7137;51.436;6.544;2024-01-06T10:12:46;100586.84;;;4.09;100.00
14117;BME280;7137;51.436;6.544;2024-01-06T10:15:48;100592.06;;;4.02;100.00
14117;BME280;7137;51.436;6.544;2024-01-06T10:18:49;100597.25;;;4.00;100.00
14117;BME280;7137;51.436;6.544;2024-01-06T10:21:51;100599.78;;;4.09;100.00
14117;BME280;7137;51.436;6.544;2024-01-06T10:24:54;100606.69;;;4.03;100.00
14117;BME280;7137;51.436;6.544;2024-01-06T10:28:00;100611.84;;;4.04;100.00
14117;BME280;7137;51.436;6.544;2024-01-06T10:31:02;100609.28;;;4.00;100.00
14117;BME280;7137;51.436;6.544;2024-01-06T10:34:04;100617.06;;;3.94;100.00
14117;BME280;7137;51.436;6.544;2024-01-06T10:37:07;100620.53;;;3.97;100.00
14117;BME280;7137;51.436;6.544;2024-01-06T10:40:09;100618.81;;;3.92;100.00
14117;BME280;7137;51.436;6.544;2024-01-06T10:43:13;100625.78;;;3.82;100.00
14117;BME280;7137;51.436;6.544;2024-01-06T10:46:14;100624.00;;;3.87;100.00
14117;BME280;7137;51.436;6.544;2024-01-06T10:49:17;100622.31;;;3.84;100.00
14117;BME280;7137;51.436;6.544;2024-01-06T10:52:20;100623.97;;;3.92;100.00
14117;BME280;7137;51.436;6.544;2024-01-06T10:55:24;100628.38;;;3.80;100.00
14117;BME280;7137;51.436;6.544;2024-01-06T10:58:29;100634.38;;;3.78;100.00
14117;BME280;7137;51.436;6.544;2024-01-06T11:01:32;100637.88;;;3.71;100.00
14117;BME280;7137;51.436;6.544;2024-01-06T11:04:35;100632.66;;;3.83;100.00
14117;BME280;7137;51.436;6.544;2024-01-06T11:07:38;100634.41;;;3.81;100.00
14117;BME280;7137;51.436;6.544;2024-01-06T11:10:40;100637.81;;;3.83;100.00
14117;BME280;7137;51.436;6.544;2024-01-06T11:13:43;100636.13;;;3.76;100.00
14117;BME280;7137;51.436;6.544;2024-01-06T11:16:47;100633.56;;;3.73;100.00
14117;BME280;7137;51.436;6.544;2024-01-06T11:19:48;100635.25;;;3.78;100.00
14117;BME280;7137;51.436;6.544;2024-01-06T11:23:17;100636.13;;;3.80;100.00
14117;BME280;7137;51.436;6.544;2024-01-06T11:26:19;100641.31;;;3.71;100.00
14117;BME280;7137;51.436;6.544;2024-01-06T11:29:22;100636.16;;;3.70;100.00
14117;BME280;7137;51.436;6.544;2024-01-06T11:32:28;100637.91;;;3.62;100.00
14117;BME280;7137;51.436;6.544;2024-01-06T11:35:30;100632.75;;;3.63;100.00
14117;BME280;7137;51.436;6.544;2024-01-06T11:38:33;100636.19;;;3.61;100.00
14117;BME280;7137;51.436;6.544;2024-01-06T11:41:51;100637.03;;;3.66;100.00
14117;BME280;7137;51.436;6.544;2024-01-06T11:45:01;100633.63;;;3.61;100.00
14117;BME280;7137;51.436;6.544;2024-01-06T11:48:04;100625.91;;;3.54;100.00
14117;BME280;7137;51.436;6.544;2024-01-06T11:51:06;100628.47;;;3.59;100.00
14117;BME280;7137;51.436;6.544;2024-01-06T11:54:09;100631.91;;;3.58;100.00
14117;BME280;7137;51.436;6.544;2024-01-06T11:57:10;100628.50;;;3.48;100.00
14117;BME280;7137;51.436;6.544;2024-01-06T12:00:14;100629.34;;;3.49;100.00
14117;BME280;7137;51.436;6.544;2024-01-06T12:03:16;100629.34;;;3.49;100.00
14117;BME280;7137;51.436;6.544;2024-01-06T12:06:20;100631.91;;;3.60;100.00
14117;BME280;7137;51.436;6.544;2024-01-06T12:09:22;100628.38;;;3.74;100.00
14117;BME280;7137;51.436;6.544;2024-01-06T12:12:26;100632.78;;;3.55;100.00
14117;BME280;7137;51.436;6.544;2024-01-06T12:15:30;100625.88;;;3.57;100.00
14117;BME280;7137;51.436;6.544;2024-01-06T12:18:32;100640.53;;;3.55;100.00
14117;BME280;7137;51.436;6.544;2024-01-06T12:21:34;100637.97;;;3.49;100.00
14117;BME280;7137;51.436;6.544;2024-01-06T12:24:37;100644.84;;;3.52;100.00
14117;BME280;7137;51.436;6.544;2024-01-06T12:27:42;100641.38;;;3.56;100.00
14117;BME280;7137;51.436;6.544;2024-01-06T12:30:45;100637.09;;;3.49;100.00
14117;BME280;7137;51.436;6.544;2024-01-06T12:33:46;100649.13;;;3.57;100.00
14117;BME280;7137;51.436;6.544;2024-01-06T12:36:52;100645.78;;;3.33;100.00
14117;BME280;7137;51.436;6.544;2024-01-06T12:39:56;100654.38;;;3.33;100.00
14117;BME280;7137;51.436;6.544;2024-01-06T12:42:58;100657.81;;;3.34;100.00
14117;BME280;7137;51.436;6.544;2024-01-06T12:46:01;100662.16;;;3.27;100.00
14117;BME280;7137;51.436;6.544;2024-01-06T12:49:03;100664.69;;;3.33;100.00
14117;BME280;7137;51.436;6.544;2024-01-06T12:52:04;100657.81;;;3.32;100.00
14117;BME280;7137;51.436;6.544;2024-01-06T12:55:06;100662.16;;;3.16;100.00
14117;BME280;7137;51.436;6.544;2024-01-06T12:58:08;100669.03;;;3.28;100.00
14117;BME280;7137;51.436;6.544;2024-01-06T13:01:12;100679.34;;;3.22;100.00
14117;BME280;7137;51.436;6.544;2024-01-06T13:04:14;100669.91;;;3.15;100.00
14117;BME280;7137;51.436;6.544;2024-01-06T13:07:16;100681.09;;;3.12;100.00
14117;BME280;7137;51.436;6.544;2024-01-06T13:10:17;100679.38;;;3.14;100.00
14117;BME280;7137;51.436;6.544;2024-01-06T13:13:19;100674.22;;;3.08;100.00
14117;BME280;7137;51.436;6.544;2024-01-06T13:16:22;100672.47;;;3.21;100.00
14117;BME280;7137;51.436;6.544;2024-01-06T13:19:23;100680.22;;;3.19;100.00
14117;BME280;7137;51.436;6.544;2024-01-06T13:22:25;100691.41;;;3.20;100.00
14117;BME280;7137;51.436;6.544;2024-01-06T13:25:26;100689.69;;;3.13;100.00
14117;BME280;7137;51.436;6.544;2024-01-06T13:28:29;100694.00;;;3.08;100.00
14117;BME280;7137;51.436;6.544;2024-01-06T13:31:32;100694.00;;;3.06;100.00
14117;BME280;7137;51.436;6.544;2024-01-06T13:34:33;100694.00;;;3.06;100.00
14117;BME280;7137;51.436;6.544;2024-01-06T13:37:35;100700.88;;;3.01;100.00
14117;BME280;7137;51.436;6.544;2024-01-06T13:40:36;100702.59;;;3.05;100.00
14117;BME280;7137;51.436;6.544;2024-01-06T13:43:38;100706.03;;;3.06;100.00
14117;BME280;7137;51.436;6.544;2024-01-06T13:46:41;100720.66;;;3.01;100.00
14117;BME280;7137;51.436;6.544;2024-01-06T13:49:44;100718.09;;;2.99;100.00
14117;BME280;7137;51.436;6.544;2024-01-06T13:52:46;100721.50;;;3.07;100.00
14117;BME280;7137;51.436;6.544;2024-01-06T13:55:48;100722.38;;;3.14;100.00
14117;BME280;7137;51.436;6.544;2024-01-06T13:58:50;100715.50;;;3.11;100.00
14117;BME280;7137;51.436;6.544;2024-01-06T14:01:53;100721.50;;;3.19;100.00
14117;BME280;7137;51.436;6.544;2024-01-06T14:04:55;100724.97;;;3.02;100.00
14117;BME280;7137;51.436;6.544;2024-01-06T14:07:57;100718.97;;;2.98;100.00
14117;BME280;7137;51.436;6.544;2024-01-06T14:10:58;100720.66;;;3.14;100.00
14117;BME280;7137;51.436;6.544;2024-01-06T14:14:00;100722.34;;;3.23;100.00
14117;BME280;7137;51.436;6.544;2024-01-06T14:17:03;100715.50;;;3.16;100.00
14117;BME280;7137;51.436;6.544;2024-01-06T14:20:05;100732.72;;;2.98;100.00
14117;BME280;7137;51.436;6.544;2024-01-06T14:23:09;100736.13;;;2.93;100.00
14117;BME280;7137;51.436;6.544;2024-01-06T14:26:11;100741.31;;;2.87;100.00
14117;BME280;7137;51.436;6.544;2024-01-06T14:29:13;100754.22;;;2.97;100.00
14117;BME280;7137;51.436;6.544;2024-01-06T14:32:18;100757.66;;;2.83;100.00
14117;BME280;7137;51.436;6.544;2024-01-06T14:35:19;100763.66;;;2.77;100.00
14117;BME280;7137;51.436;6.544;2024-01-06T14:38:21;100764.53;;;2.82;100.00
14117;BME280;7137;51.436;6.544;2024-01-06T14:41:23;100771.41;;;2.82;100.00
14117;BME280;7137;51.436;6.544;2024-01-06T14:44:24;100776.56;;;2.86;100.00
14117;BME280;7137;51.436;6.544;2024-01-06T14:47:29;100781.72;;;2.89;100.00
14117;BME280;7137;51.436;6.544;2024-01-06T14:50:32;100787.72;;;2.94;100.00
14117;BME280;7137;51.436;6.544;2024-01-06T14:53:34;100788.59;;;2.84;100.00
14117;BME280;7137;51.436;6.544;2024-01-06T14:56:38;100798.91;;;2.75;100.00
14117;BME280;7137;51.436;6.544;2024-01-06T14:59:40;100798.91;;;2.77;100.00
14117;BME280;7137;51.436;6.544;2024-01-06T15:02:43;100801.47;;;2.78;100.00
14117;BME280;7137;51.436;6.544;2024-01-06T15:05:46;100810.94;;;2.85;100.00
14117;BME280;7137;51.436;6.544;2024-01-06T15:08:47;100807.50;;;2.91;100.00
14117;BME280;7137;51.436;6.544;2024-01-06T15:11:49;100813.53;;;2.88;100.00
14117;BME280;7137;51.436;6.544;2024-01-06T15:14:51;100821.28;;;2.90;100.00
14117;BME280;7137;51.436;6.544;2024-01-06T15:17:54;100820.41;;;2.89;100.00
14117;BME280;7137;51.436;6.544;2024-01-06T15:20:56;100828.16;;;2.86;100.00
14117;BME280;7137;51.436;6.544;2024-01-06T15:23:58;100819.53;;;2.80;100.00
14117;BME280;7137;51.436;6.544;2024-01-06T15:26:59;100835.00;;;2.78;100.00
14117;BME280;7137;51.436;6.544;2024-01-06T15:30:01;100843.59;;;2.73;100.00
14117;BME280;7137;51.436;6.544;2024-01-06T15:33:08;100847.03;;;2.78;100.00
14117;BME280;7137;51.436;6.544;2024-01-06T15:36:09;100853.94;;;2.86;100.00
14117;BME280;7137;51.436;6.544;2024-01-06T15:39:11;100866.00;;;2.96;100.00
14117;BME280;7137;51.436;6.544;2024-01-06T15:42:14;100871.16;;;3.00;100.00
14117;BME280;7137;51.436;6.544;2024-01-06T15:45:15;100881.50;;;2.96;100.00
14117;BME280;7137;51.436;6.544;2024-01-06T15:48:18;100882.31;;;2.86;100.00
14117;BME280;7137;51.436;6.544;2024-01-06T15:51:20;100882.31;;;2.95;100.00
14117;BME280;7137;51.436;6.544;2024-01-06T15:54:23;100892.63;;;2.86;100.00
14117;BME280;7137;51.436;6.544;2024-01-06T15:57:24;100886.63;;;2.89;100.00
14117;BME280;7137;51.436;6.544;2024-01-06T16:00:28;100883.13;;;2.79;100.00
14117;BME280;7137;51.436;6.544;2024-01-06T16:03:31;100892.59;;;2.71;100.00
14117;BME280;7137;51.436;6.544;2024-01-06T16:06:33;100896.84;;;2.60;100.00
14117;BME280;7137;51.436;6.544;2024-01-06T16:09:34;100893.34;;;2.44;100.00